createdAt,value
2018-07-01T00:03:57.615Z,14.70
2018-07-01T00:06:27.066Z,14.70
2018-07-01T00:08:56.520Z,14.60
2018-07-01T00:11:25.941Z,14.60
2018-07-01T00:16:24.368Z,14.60
2018-07-01T00:18:53.845Z,14.60
2018-07-01T00:21:23.228Z,14.50
2018-07-01T00:23:52.686Z,14.50
2018-07-01T00:26:22.081Z,14.50
2018-07-01T00:28:51.549Z,14.50
2018-07-01T00:31:21.014Z,14.40
2018-07-01T00:33:50.449Z,14.40
2018-07-01T00:36:19.885Z,14.40
2018-07-01T00:38:49.314Z,14.40
2018-07-01T00:41:18.899Z,14.40
2018-07-01T00:43:48.351Z,14.40
2018-07-01T00:46:17.772Z,14.40
2018-07-01T00:48:47.329Z,14.40
2018-07-01T00:51:16.791Z,14.40
2018-07-01T00:53:46.456Z,14.40
2018-07-01T00:56:15.892Z,14.30
2018-07-01T00:58:45.375Z,14.30
2018-07-01T01:01:14.826Z,14.30
2018-07-01T01:03:44.246Z,14.20
2018-07-01T01:06:13.839Z,14.20
2018-07-01T01:08:43.262Z,14.20
2018-07-01T01:11:12.748Z,14.20
2018-07-01T01:13:42.211Z,14.20
2018-07-01T01:16:11.689Z,14.20
2018-07-01T01:18:41.157Z,14.20
2018-07-01T01:23:39.933Z,14.20
2018-07-01T01:26:09.342Z,14.10
2018-07-01T01:28:38.739Z,14.10
2018-07-01T01:31:08.250Z,14.00
2018-07-01T01:33:37.778Z,13.90
2018-07-01T01:36:07.406Z,13.90
2018-07-01T01:38:38.808Z,13.90
2018-07-01T01:41:18.876Z,13.90
2018-07-01T01:43:55.761Z,13.80
2018-07-01T01:46:30.589Z,13.80
2018-07-01T01:49:06.466Z,13.80
2018-07-01T01:51:41.268Z,13.80
2018-07-01T01:54:30.348Z,13.70
2018-07-01T01:57:05.090Z,13.70
2018-07-01T01:59:39.791Z,13.60
2018-07-01T02:02:14.706Z,13.60
2018-07-01T02:05:06.998Z,13.60
2018-07-01T02:07:46.791Z,13.60
2018-07-01T02:10:16.312Z,13.60
2018-07-01T02:12:45.849Z,13.50
2018-07-01T02:15:18.877Z,13.40
2018-07-01T02:17:49.919Z,13.40
2018-07-01T02:20:21.671Z,13.40
2018-07-01T02:23:09.653Z,13.30
2018-07-01T02:25:40.401Z,13.30
2018-07-01T02:28:09.873Z,13.30
2018-07-01T02:30:39.309Z,13.20
2018-07-01T02:33:08.849Z,13.20
2018-07-01T02:38:07.268Z,13.10
2018-07-01T02:40:36.729Z,13.10
2018-07-01T02:43:06.283Z,13.10
2018-07-01T02:45:35.720Z,13.10
2018-07-01T02:48:05.354Z,13.10
2018-07-01T02:50:34.806Z,13.00
2018-07-01T02:53:04.392Z,13.00
2018-07-01T02:55:33.852Z,12.90
2018-07-01T02:58:03.287Z,12.90
2018-07-01T03:00:32.749Z,12.80
2018-07-01T03:03:02.216Z,12.80
2018-07-01T03:05:31.770Z,12.70
2018-07-01T03:08:01.211Z,12.70
2018-07-01T03:10:30.677Z,12.70
2018-07-01T03:13:00.110Z,12.60
2018-07-01T03:15:29.541Z,12.50
2018-07-01T03:17:58.963Z,12.50
2018-07-01T03:20:28.411Z,12.50
2018-07-01T03:22:57.858Z,12.50
2018-07-01T03:25:27.267Z,12.50
2018-07-01T03:27:56.677Z,12.50
2018-07-01T03:30:26.144Z,12.40
2018-07-01T03:32:55.726Z,12.40
2018-07-01T03:35:25.143Z,12.50
2018-07-01T03:37:54.523Z,12.50
2018-07-01T03:40:23.947Z,12.40
2018-07-01T03:42:53.381Z,12.40
2018-07-01T03:45:22.806Z,12.50
2018-07-01T03:47:52.267Z,12.50
2018-07-01T03:50:21.685Z,12.50
2018-07-01T03:52:51.125Z,12.50
2018-07-01T03:55:20.693Z,12.50
2018-07-01T03:57:50.125Z,12.50
2018-07-01T04:00:19.778Z,12.50
2018-07-01T04:02:49.199Z,12.60
2018-07-01T04:05:18.645Z,12.70
2018-07-01T04:07:48.060Z,12.70
2018-07-01T04:10:17.497Z,12.60
2018-07-01T04:12:46.954Z,12.60
2018-07-01T04:15:16.411Z,12.70
2018-07-01T04:17:45.844Z,12.70
2018-07-01T04:20:15.270Z,12.80
2018-07-01T04:22:44.725Z,12.90
2018-07-01T04:25:14.142Z,13.00
2018-07-01T04:27:43.564Z,13.00
2018-07-01T04:30:13.050Z,13.10
2018-07-01T04:32:42.500Z,13.20
2018-07-01T04:35:11.980Z,13.30
2018-07-01T04:37:41.458Z,13.40
2018-07-01T04:40:10.877Z,13.50
2018-07-01T04:42:40.430Z,13.50
2018-07-01T04:45:09.870Z,13.50
2018-07-01T04:47:39.322Z,13.60
2018-07-01T04:50:08.789Z,13.60
2018-07-01T04:52:38.217Z,13.70
2018-07-01T04:55:07.788Z,13.70
2018-07-01T04:57:37.218Z,13.70
2018-07-01T05:00:06.710Z,13.80
2018-07-01T05:02:36.135Z,13.80
2018-07-01T05:05:05.578Z,14.00
2018-07-01T05:07:35.010Z,14.10
2018-07-01T05:10:04.598Z,14.20
2018-07-01T05:12:34.032Z,14.30
2018-07-01T05:15:03.497Z,14.50
2018-07-01T05:17:32.978Z,14.70
2018-07-01T05:20:02.495Z,15.00
2018-07-01T05:22:31.936Z,15.10
2018-07-01T05:25:01.370Z,15.30
2018-07-01T05:27:30.861Z,15.60
2018-07-01T05:30:00.707Z,15.90
2018-07-01T05:32:30.127Z,16.30
2018-07-01T05:34:59.648Z,16.80
2018-07-01T05:37:29.136Z,17.00
2018-07-01T05:39:58.594Z,17.30
2018-07-01T05:42:28.041Z,17.40
2018-07-01T05:44:57.618Z,17.50
2018-07-01T05:47:27.054Z,17.60
2018-07-01T05:49:56.482Z,17.70
2018-07-01T05:52:25.915Z,17.90
2018-07-01T05:54:55.393Z,18.00
2018-07-01T05:57:24.921Z,18.00
2018-07-01T05:59:54.397Z,18.10
2018-07-01T06:02:23.839Z,18.40
2018-07-01T06:04:53.313Z,18.60
2018-07-01T06:07:22.744Z,18.70
2018-07-01T06:09:52.258Z,18.70
2018-07-01T06:12:21.688Z,18.80
2018-07-01T06:14:51.126Z,18.60
2018-07-01T06:17:20.672Z,18.70
2018-07-01T06:19:50.196Z,18.70
2018-07-01T06:22:19.597Z,18.80
2018-07-01T06:24:49.106Z,18.90
2018-07-01T06:27:18.587Z,19.00
2018-07-01T06:29:48.040Z,19.20
2018-07-01T06:32:17.521Z,19.00
2018-07-01T06:34:46.979Z,19.00
2018-07-01T06:37:16.424Z,19.00
2018-07-01T06:39:45.870Z,19.20
2018-07-01T06:42:15.320Z,19.30
2018-07-01T06:44:44.888Z,19.30
2018-07-01T06:47:14.374Z,19.10
2018-07-01T06:49:43.808Z,19.20
2018-07-01T06:52:13.267Z,19.30
2018-07-01T06:54:42.878Z,19.60
2018-07-01T06:57:12.394Z,19.70
2018-07-01T06:59:42.180Z,19.90
2018-07-01T07:02:11.706Z,20.00
2018-07-01T07:04:41.125Z,20.20
2018-07-01T07:07:10.590Z,20.00
2018-07-01T07:09:39.993Z,20.00
2018-07-01T07:12:09.485Z,20.20
2018-07-01T07:14:38.935Z,20.10
2018-07-01T07:17:08.395Z,20.30
2018-07-01T07:19:37.892Z,20.40
2018-07-01T07:22:07.600Z,20.60
2018-07-01T07:24:37.185Z,20.20
2018-07-01T07:27:07.060Z,20.10
2018-07-01T07:29:36.513Z,20.30
2018-07-01T07:32:06.349Z,20.30
2018-07-01T07:34:35.677Z,20.60
2018-07-01T07:37:05.180Z,20.90
2018-07-01T07:39:34.615Z,20.80
2018-07-01T07:42:04.198Z,21.00
2018-07-01T07:44:33.625Z,21.00
2018-07-01T07:47:03.049Z,21.10
2018-07-01T07:49:32.951Z,21.20
2018-07-01T07:52:02.417Z,21.20
2018-07-01T07:54:31.847Z,21.20
2018-07-01T07:57:01.334Z,21.50
2018-07-01T07:59:30.780Z,21.30
2018-07-01T08:02:00.398Z,21.40
2018-07-01T08:04:29.854Z,21.40
2018-07-01T08:06:59.338Z,21.50
2018-07-01T08:09:28.765Z,21.40
2018-07-01T08:11:58.215Z,21.70
2018-07-01T08:14:28.081Z,21.90
2018-07-01T08:16:57.550Z,21.70
2018-07-01T08:19:26.970Z,21.70
2018-07-01T08:21:56.469Z,21.80
2018-07-01T08:24:25.872Z,22.00
2018-07-01T08:26:55.346Z,22.10
2018-07-01T08:29:24.801Z,22.10
2018-07-01T08:31:54.278Z,22.00
2018-07-01T08:34:23.691Z,22.20
2018-07-01T08:36:53.116Z,22.30
2018-07-01T08:39:22.673Z,22.30
2018-07-01T08:42:37.597Z,22.50
2018-07-01T08:45:08.685Z,22.50
2018-07-01T08:47:39.072Z,22.50
2018-07-01T08:50:08.820Z,22.10
2018-07-01T08:52:38.344Z,22.60
2018-07-01T08:55:07.788Z,22.80
2018-07-01T08:57:37.323Z,22.70
2018-07-01T09:00:07.727Z,22.90
2018-07-01T09:02:37.159Z,23.10
2018-07-01T09:05:07.139Z,22.70
2018-07-01T09:07:36.550Z,22.80
2018-07-01T09:10:06.177Z,22.60
2018-07-01T09:12:35.608Z,22.70
2018-07-01T09:15:05.608Z,23.00
2018-07-01T09:17:35.115Z,22.90
2018-07-01T09:20:04.655Z,23.10
2018-07-01T09:22:34.153Z,23.10
2018-07-01T09:25:03.617Z,23.10
2018-07-01T09:27:32.991Z,23.20
2018-07-01T09:30:03.333Z,23.90
2018-07-01T09:32:32.781Z,24.20
2018-07-01T09:35:02.318Z,24.20
2018-07-01T09:37:31.718Z,24.40
2018-07-01T09:40:01.178Z,24.20
2018-07-01T09:42:30.653Z,23.90
2018-07-01T09:45:00.111Z,24.00
2018-07-01T09:47:29.536Z,24.00
2018-07-01T09:49:59.015Z,23.80
2018-07-01T09:52:28.503Z,24.20
2018-07-01T09:54:58.551Z,24.20
2018-07-01T09:57:28.001Z,24.20
2018-07-01T09:59:57.495Z,24.40
2018-07-01T10:02:27.284Z,24.60
2018-07-01T10:04:56.722Z,24.50
2018-07-01T10:07:26.170Z,24.50
2018-07-01T10:09:55.615Z,24.30
2018-07-01T10:12:25.077Z,24.20
2018-07-01T10:14:54.528Z,24.00
2018-07-01T10:17:23.959Z,23.70
2018-07-01T10:19:53.367Z,24.00
2018-07-01T10:22:22.850Z,24.30
2018-07-01T10:24:52.261Z,24.00
2018-07-01T10:27:21.748Z,23.60
2018-07-01T10:29:51.181Z,23.80
2018-07-01T10:32:20.683Z,24.00
2018-07-01T10:34:50.132Z,24.50
2018-07-01T10:37:19.568Z,24.80
2018-07-01T10:39:49.148Z,25.10
2018-07-01T10:42:18.577Z,25.10
2018-07-01T10:44:48.004Z,25.00
2018-07-01T10:47:17.449Z,25.00
2018-07-01T10:49:46.857Z,24.60
2018-07-01T10:52:16.437Z,25.00
2018-07-01T10:54:45.852Z,24.90
2018-07-01T10:57:15.234Z,25.20
2018-07-01T10:59:44.711Z,24.70
2018-07-01T11:02:14.147Z,24.50
2018-07-01T11:04:44.021Z,24.90
2018-07-01T11:07:13.379Z,25.20
2018-07-01T11:09:43.026Z,25.50
2018-07-01T11:12:12.459Z,25.40
2018-07-01T11:14:41.880Z,25.30
2018-07-01T11:17:11.345Z,25.40
2018-07-01T11:19:40.785Z,25.40
2018-07-01T11:22:10.251Z,25.20
2018-07-01T11:27:08.843Z,25.40
2018-07-01T11:29:38.383Z,25.40
2018-07-01T11:32:07.781Z,25.60
2018-07-01T11:34:37.314Z,25.90
2018-07-01T11:37:06.804Z,26.10
2018-07-01T11:39:36.258Z,26.10
2018-07-01T11:42:06.050Z,25.40
2018-07-01T11:44:35.544Z,25.60
2018-07-01T11:47:05.025Z,25.60
2018-07-01T11:49:34.448Z,25.80
2018-07-01T11:52:03.943Z,25.90
2018-07-01T11:54:33.385Z,26.10
2018-07-01T11:57:09.497Z,26.20
2018-07-01T11:59:39.077Z,26.50
2018-07-01T12:02:09.015Z,26.00
2018-07-01T12:04:38.424Z,26.30
2018-07-01T12:07:07.867Z,26.20
2018-07-01T12:09:37.262Z,25.80
2018-07-01T12:12:06.812Z,26.10
2018-07-01T12:14:36.312Z,26.40
2018-07-01T12:17:05.838Z,26.40
2018-07-01T12:19:35.242Z,26.30
2018-07-01T12:22:04.730Z,26.00
2018-07-01T12:24:34.163Z,26.40
2018-07-01T12:27:03.737Z,26.40
2018-07-01T12:29:33.158Z,26.30
2018-07-01T12:32:02.616Z,26.20
2018-07-01T12:34:32.058Z,26.40
2018-07-01T12:37:01.541Z,26.60
2018-07-01T12:39:31.332Z,26.20
2018-07-01T12:42:00.922Z,26.40
2018-07-01T12:44:30.289Z,27.00
2018-07-01T12:47:00.146Z,27.20
2018-07-01T12:49:29.580Z,27.20
2018-07-01T12:51:59.381Z,26.70
2018-07-01T12:54:28.846Z,26.60
2018-07-01T12:56:58.268Z,26.80
2018-07-01T12:59:27.786Z,26.60
2018-07-01T13:01:57.247Z,26.80
2018-07-01T13:04:26.735Z,26.90
2018-07-01T13:06:56.205Z,26.80
2018-07-01T13:09:32.262Z,26.80
2018-07-01T13:12:01.732Z,26.60
2018-07-01T13:14:31.185Z,26.30
2018-07-01T13:17:00.661Z,26.50
2018-07-01T13:19:30.477Z,26.60
2018-07-01T13:21:59.954Z,26.60
2018-07-01T13:24:29.439Z,26.70
2018-07-01T13:26:58.897Z,26.40
2018-07-01T13:29:28.328Z,26.50
2018-07-01T13:31:57.934Z,26.90
2018-07-01T13:34:27.356Z,26.50
2018-07-01T13:36:56.831Z,26.60
2018-07-01T13:39:26.309Z,26.80
2018-07-01T13:41:55.754Z,26.80
2018-07-01T13:44:25.244Z,26.60
2018-07-01T13:46:54.741Z,26.50
2018-07-01T13:49:24.220Z,26.30
2018-07-01T13:54:22.628Z,26.70
2018-07-01T13:56:52.100Z,27.00
2018-07-01T13:59:21.559Z,27.00
2018-07-01T14:01:51.034Z,27.10
2018-07-01T14:04:20.475Z,26.70
2018-07-01T14:06:49.932Z,26.10
2018-07-01T14:09:19.405Z,26.00
2018-07-01T14:11:48.855Z,26.30
2018-07-01T14:14:18.333Z,26.30
2018-07-01T14:16:47.804Z,26.40
2018-07-01T14:19:17.241Z,26.70
2018-07-01T14:21:46.664Z,26.80
2018-07-01T14:24:16.141Z,26.90
2018-07-01T14:26:45.590Z,27.30
2018-07-01T14:29:15.483Z,27.30
2018-07-01T14:31:44.890Z,27.10
2018-07-01T14:34:14.350Z,27.10
2018-07-01T14:36:43.806Z,27.00
2018-07-01T14:39:13.930Z,27.10
2018-07-01T14:41:43.702Z,27.30
2018-07-01T14:44:13.120Z,27.30
2018-07-01T14:46:42.562Z,27.30
2018-07-01T14:49:12.456Z,27.40
2018-07-01T14:51:41.848Z,27.40
2018-07-01T14:54:11.278Z,27.40
2018-07-01T14:56:40.755Z,27.40
2018-07-01T14:59:10.214Z,27.50
2018-07-01T15:01:39.737Z,27.40
2018-07-01T15:04:09.161Z,27.50
2018-07-01T15:06:38.609Z,27.20
2018-07-01T15:09:09.861Z,27.40
2018-07-01T15:11:39.318Z,27.20
2018-07-01T15:14:09.289Z,26.80
2018-07-01T15:16:38.739Z,26.50
2018-07-01T15:19:08.283Z,26.30
2018-07-01T15:21:37.736Z,26.70
2018-07-01T15:24:07.200Z,26.80
2018-07-01T15:26:36.652Z,27.30
2018-07-01T15:29:06.138Z,27.30
2018-07-01T15:31:35.595Z,27.40
2018-07-01T15:34:05.058Z,27.40
2018-07-01T15:36:34.539Z,27.40
2018-07-01T15:39:05.603Z,27.30
2018-07-01T15:41:35.051Z,26.90
2018-07-01T15:44:04.570Z,27.20
2018-07-01T15:46:33.989Z,27.00
2018-07-01T15:49:03.525Z,26.60
2018-07-01T15:51:33.072Z,26.80
2018-07-01T15:54:02.668Z,27.20
2018-07-01T15:56:32.113Z,27.60
2018-07-01T15:59:01.564Z,27.50
2018-07-01T16:01:31.054Z,27.80
2018-07-01T16:04:00.472Z,27.80
2018-07-01T16:06:29.922Z,27.70
2018-07-01T16:08:59.351Z,27.40
2018-07-01T16:11:28.830Z,27.10
2018-07-01T16:13:58.290Z,27.10
2018-07-01T16:16:27.772Z,27.50
2018-07-01T16:18:57.187Z,28.20
2018-07-01T16:21:26.790Z,28.20
2018-07-01T16:23:56.374Z,28.30
2018-07-01T16:26:31.162Z,28.50
2018-07-01T16:29:01.544Z,28.70
2018-07-01T16:31:32.214Z,29.90
2018-07-01T16:34:01.645Z,29.90
2018-07-01T16:36:31.254Z,29.60
2018-07-01T16:39:01.208Z,29.30
2018-07-01T16:41:30.651Z,30.30
2018-07-01T16:44:00.051Z,30.60
2018-07-01T16:46:29.484Z,30.10
2018-07-01T16:48:58.930Z,30.20
2018-07-01T16:51:28.912Z,30.70
2018-07-01T16:53:58.439Z,31.00
2018-07-01T16:56:28.017Z,31.10
2018-07-01T16:58:57.425Z,31.00
2018-07-01T17:01:26.914Z,30.60
2018-07-01T17:03:56.391Z,31.00
2018-07-01T17:06:25.852Z,30.80
2018-07-01T17:08:55.274Z,30.90
2018-07-01T17:11:24.764Z,31.10
2018-07-01T17:13:54.223Z,30.50
2018-07-01T17:16:23.691Z,30.80
2018-07-01T17:18:53.158Z,30.60
2018-07-01T17:21:22.638Z,30.80
2018-07-01T17:23:52.099Z,30.90
2018-07-01T17:26:21.562Z,30.90
2018-07-01T17:28:51.047Z,31.00
2018-07-01T17:31:25.661Z,31.50
2018-07-01T17:33:55.208Z,31.00
2018-07-01T17:36:24.665Z,30.80
2018-07-01T17:38:54.129Z,30.90
2018-07-01T17:41:23.567Z,31.10
2018-07-01T17:43:53.155Z,31.40
2018-07-01T17:46:22.647Z,31.70
2018-07-01T17:48:52.143Z,31.60
2018-07-01T17:51:21.595Z,30.90
2018-07-01T17:53:54.760Z,31.60
2018-07-01T17:56:24.576Z,32.10
2018-07-01T17:58:54.783Z,31.30
2018-07-01T18:01:24.237Z,31.00
2018-07-01T18:06:22.708Z,30.30
2018-07-01T18:08:52.177Z,30.50
2018-07-01T18:11:21.635Z,30.50
2018-07-01T18:13:51.091Z,30.80
2018-07-01T18:16:20.533Z,30.50
2018-07-01T18:21:19.770Z,28.50
2018-07-01T18:24:19.496Z,27.50
2018-07-01T18:26:18.108Z,26.70
2018-07-01T18:28:59.155Z,25.90
2018-07-01T18:31:17.283Z,25.20
2018-07-01T18:33:46.866Z,24.60
2018-07-01T18:36:16.308Z,24.40
2018-07-01T18:38:45.766Z,24.20
2018-07-01T18:41:15.259Z,24.10
2018-07-01T18:43:44.911Z,23.90
2018-07-01T18:46:14.374Z,23.60
2018-07-01T18:48:43.872Z,23.40
2018-07-01T18:53:43.079Z,23.20
2018-07-01T18:56:12.562Z,22.90
2018-07-01T18:58:42.345Z,22.70
2018-07-01T19:01:12.212Z,22.60
2018-07-01T19:03:41.914Z,22.50
2018-07-01T19:06:11.406Z,22.30
2018-07-01T19:08:41.010Z,22.20
2018-07-01T19:11:10.842Z,22.10
2018-07-01T19:13:40.532Z,21.90
2018-07-01T19:16:10.031Z,21.70
2018-07-01T19:18:40.024Z,21.60
2018-07-01T19:21:09.962Z,21.40
2018-07-01T19:23:40.189Z,21.30
2018-07-01T19:26:09.991Z,21.20
2018-07-01T19:28:39.492Z,21.00
2018-07-01T19:31:08.959Z,20.90
2018-07-01T19:33:38.433Z,20.80
2018-07-01T19:36:07.899Z,20.70
2018-07-01T19:38:37.508Z,20.70
2018-07-01T19:41:07.077Z,20.60
2018-07-01T19:43:36.740Z,20.50
2018-07-01T19:46:06.585Z,20.30
2018-07-01T19:48:36.252Z,20.30
2018-07-01T19:51:05.796Z,20.10
2018-07-01T19:53:35.772Z,20.00
2018-07-01T19:56:05.512Z,19.90
2018-07-01T19:58:34.981Z,19.60
2018-07-01T20:01:04.465Z,19.50
2018-07-01T20:03:33.962Z,19.40
2018-07-01T20:06:03.382Z,19.20
2018-07-01T20:08:32.843Z,19.10
2018-07-01T20:11:02.359Z,18.90
2018-07-01T20:13:31.783Z,18.70
2018-07-01T20:16:01.636Z,18.70
2018-07-01T20:18:31.089Z,18.70
2018-07-01T20:21:00.588Z,18.70
2018-07-01T20:23:30.213Z,18.60
2018-07-01T20:25:59.684Z,18.50
2018-07-01T20:28:29.163Z,18.40
2018-07-01T20:30:58.646Z,18.30
2018-07-01T20:33:28.026Z,18.20
2018-07-01T20:35:58.093Z,18.10
2018-07-01T20:40:57.161Z,18.00
2018-07-01T20:43:29.175Z,18.00
2018-07-01T20:45:58.685Z,18.00
2018-07-01T20:48:28.096Z,18.00
2018-07-01T20:50:57.632Z,17.90
2018-07-01T20:53:27.036Z,17.90
2018-07-01T20:55:56.520Z,17.80
2018-07-01T20:58:25.991Z,17.70
2018-07-01T21:00:55.415Z,17.60
2018-07-01T21:03:24.921Z,17.60
2018-07-01T21:05:54.538Z,17.60
2018-07-01T21:08:23.962Z,17.50
2018-07-01T21:10:53.427Z,17.60
2018-07-01T21:13:22.879Z,17.60
2018-07-01T21:15:52.462Z,17.50
2018-07-01T21:18:22.636Z,17.50
2018-07-01T21:20:52.022Z,17.40
2018-07-01T21:23:21.848Z,17.30
2018-07-01T21:25:51.351Z,17.30
2018-07-01T21:28:20.765Z,17.20
2018-07-01T21:30:50.247Z,17.10
2018-07-01T21:33:20.216Z,17.00
2018-07-01T21:35:49.663Z,16.90
2018-07-01T21:38:19.143Z,16.80
2018-07-01T21:40:48.587Z,16.80
2018-07-01T21:43:18.061Z,16.60
2018-07-01T21:45:47.550Z,16.60
2018-07-01T21:48:16.995Z,16.50
2018-07-01T21:50:46.459Z,16.50
2018-07-01T21:53:15.897Z,16.40
2018-07-01T21:55:45.399Z,16.40
2018-07-01T21:58:14.891Z,16.30
2018-07-01T22:00:45.094Z,16.10
2018-07-01T22:03:14.552Z,16.10
2018-07-01T22:05:44.111Z,16.10
2018-07-01T22:08:13.849Z,16.00
2018-07-01T22:11:57.895Z,16.00
2018-07-01T22:14:33.517Z,16.00
2018-07-01T22:17:03.941Z,15.90
2018-07-01T22:19:33.819Z,15.90
2018-07-01T22:22:03.685Z,15.90
2018-07-01T22:24:34.480Z,16.00
2018-07-01T22:27:04.114Z,15.90
2018-07-01T22:29:33.666Z,15.90
2018-07-01T22:32:03.265Z,15.80
2018-07-01T22:34:32.717Z,15.80
2018-07-01T22:37:02.264Z,15.70
2018-07-01T22:39:31.935Z,15.60
2018-07-01T22:42:02.404Z,15.60
2018-07-01T22:44:32.044Z,15.50
2018-07-01T22:47:01.575Z,15.40
2018-07-01T22:49:31.028Z,15.40
2018-07-01T22:52:00.760Z,15.40
2018-07-01T22:54:30.248Z,15.40
2018-07-01T22:56:59.840Z,15.30
2018-07-01T22:59:29.295Z,15.20
2018-07-01T23:03:19.209Z,15.20
2018-07-01T23:05:48.785Z,15.10
2018-07-01T23:08:18.330Z,15.10
2018-07-01T23:10:47.773Z,15.10
2018-07-01T23:13:17.289Z,15.00
2018-07-01T23:15:46.768Z,15.10
2018-07-01T23:18:16.366Z,15.20
2018-07-01T23:20:45.825Z,15.30
2018-07-01T23:23:15.388Z,15.20
2018-07-01T23:25:44.863Z,15.30
2018-07-01T23:28:14.321Z,15.30
2018-07-01T23:30:43.801Z,15.40
2018-07-01T23:33:13.308Z,15.30
2018-07-01T23:35:42.826Z,15.40
2018-07-01T23:38:12.315Z,15.40
2018-07-01T23:40:41.777Z,15.40
2018-07-01T23:43:11.241Z,15.40
2018-07-01T23:45:40.773Z,15.30
2018-07-01T23:48:10.260Z,15.30
2018-07-01T23:50:39.714Z,15.30
2018-07-01T23:53:09.214Z,15.30
2018-07-01T23:55:39.207Z,15.40
2018-07-01T23:58:08.745Z,15.40
